sensor_id;sensor_type;location;lat;lon;timestamp;P1;durP1;ratioP1;P2;durP2;ratioP2
79480;SDS011;68944;48.262;14.208;2023-05-20T00:00:48;8.57;;;5.32;;
79480;SDS011;68944;48.262;14.208;2023-05-20T00:03:14;8.80;;;5.15;;
79480;SDS011;68944;48.262;14.208;2023-05-20T00:05:44;8.88;;;5.38;;
79480;SDS011;68944;48.262;14.208;2023-05-20T00:08:10;10.43;;;5.28;;
79480;SDS011;68944;48.262;14.208;2023-05-20T00:10:36;10.80;;;5.18;;
79480;SDS011;68944;48.262;14.208;2023-05-20T00:13:01;10.35;;;5.05;;
79480;SDS011;68944;48.262;14.208;2023-05-20T00:15:27;10.02;;;5.05;;
79480;SDS011;68944;48.262;14.208;2023-05-20T00:17:53;10.07;;;5.43;;
79480;SDS011;68944;48.262;14.208;2023-05-20T00:20:19;9.55;;;5.60;;
79480;SDS011;68944;48.262;14.208;2023-05-20T00:22:45;10.05;;;6.07;;
79480;SDS011;68944;48.262;14.208;2023-05-20T00:25:11;10.18;;;6.18;;
79480;SDS011;68944;48.262;14.208;2023-05-20T00:27:39;11.77;;;5.45;;
79480;SDS011;68944;48.262;14.208;2023-05-20T00:30:05;10.73;;;6.05;;
79480;SDS011;68944;48.262;14.208;2023-05-20T00:32:31;10.95;;;5.50;;
79480;SDS011;68944;48.262;14.208;2023-05-20T00:34:58;9.00;;;5.20;;
79480;SDS011;68944;48.262;14.208;2023-05-20T00:37:24;10.75;;;5.40;;
79480;SDS011;68944;48.262;14.208;2023-05-20T00:39:50;12.50;;;6.10;;
79480;SDS011;68944;48.262;14.208;2023-05-20T00:42:23;12.45;;;5.95;;
79480;SDS011;68944;48.262;14.208;2023-05-20T00:44:50;11.90;;;6.75;;
79480;SDS011;68944;48.262;14.208;2023-05-20T00:47:20;10.18;;;6.00;;
79480;SDS011;68944;48.262;14.208;2023-05-20T00:49:50;9.60;;;6.00;;
79480;SDS011;68944;48.262;14.208;2023-05-20T00:52:17;11.77;;;6.00;;
79480;SDS011;68944;48.262;14.208;2023-05-20T00:54:43;12.68;;;5.97;;
79480;SDS011;68944;48.262;14.208;2023-05-20T00:57:10;9.68;;;5.45;;
79480;SDS011;68944;48.262;14.208;2023-05-20T00:59:36;9.07;;;5.57;;
79480;SDS011;68944;48.262;14.208;2023-05-20T01:02:03;13.65;;;5.65;;
79480;SDS011;68944;48.262;14.208;2023-05-20T01:04:29;12.20;;;5.90;;
79480;SDS011;68944;48.262;14.208;2023-05-20T01:06:55;13.40;;;6.00;;
79480;SDS011;68944;48.262;14.208;2023-05-20T01:09:23;9.52;;;5.82;;
79480;SDS011;68944;48.262;14.208;2023-05-20T01:11:50;13.00;;;6.85;;
79480;SDS011;68944;48.262;14.208;2023-05-20T01:14:23;10.20;;;5.82;;
79480;SDS011;68944;48.262;14.208;2023-05-20T01:16:54;9.80;;;5.70;;
79480;SDS011;68944;48.262;14.208;2023-05-20T01:19:26;10.35;;;5.53;;
79480;SDS011;68944;48.262;14.208;2023-05-20T01:21:59;8.98;;;5.22;;
79480;SDS011;68944;48.262;14.208;2023-05-20T01:24:30;8.52;;;4.97;;
79480;SDS011;68944;48.262;14.208;2023-05-20T01:26:55;8.98;;;5.28;;
79480;SDS011;68944;48.262;14.208;2023-05-20T01:29:22;10.10;;;5.22;;
79480;SDS011;68944;48.262;14.208;2023-05-20T01:31:48;8.65;;;5.22;;
79480;SDS011;68944;48.262;14.208;2023-05-20T01:34:17;8.38;;;4.82;;
79480;SDS011;68944;48.262;14.208;2023-05-20T01:36:43;9.02;;;5.13;;
79480;SDS011;68944;48.262;14.208;2023-05-20T01:39:11;8.32;;;4.82;;
79480;SDS011;68944;48.262;14.208;2023-05-20T01:41:37;8.95;;;5.55;;
79480;SDS011;68944;48.262;14.208;2023-05-20T01:44:05;10.02;;;5.20;;
79480;SDS011;68944;48.262;14.208;2023-05-20T01:46:31;10.70;;;5.22;;
79480;SDS011;68944;48.262;14.208;2023-05-20T01:48:58;8.38;;;4.60;;
79480;SDS011;68944;48.262;14.208;2023-05-20T01:51:24;8.95;;;5.03;;
79480;SDS011;68944;48.262;14.208;2023-05-20T01:53:50;13.27;;;6.78;;
79480;SDS011;68944;48.262;14.208;2023-05-20T01:56:16;10.93;;;5.72;;
79480;SDS011;68944;48.262;14.208;2023-05-20T01:58:41;11.02;;;6.20;;
79480;SDS011;68944;48.262;14.208;2023-05-20T02:01:07;9.38;;;5.80;;
79480;SDS011;68944;48.262;14.208;2023-05-20T02:03:32;9.48;;;5.50;;
79480;SDS011;68944;48.262;14.208;2023-05-20T02:05:58;10.13;;;5.88;;
79480;SDS011;68944;48.262;14.208;2023-05-20T02:08:24;10.38;;;5.82;;
79480;SDS011;68944;48.262;14.208;2023-05-20T02:10:50;9.98;;;5.75;;
79480;SDS011;68944;48.262;14.208;2023-05-20T02:13:15;10.70;;;6.07;;
79480;SDS011;68944;48.262;14.208;2023-05-20T02:15:41;9.10;;;5.18;;
79480;SDS011;68944;48.262;14.208;2023-05-20T02:18:06;11.85;;;5.97;;
79480;SDS011;68944;48.262;14.208;2023-05-20T02:20:35;12.50;;;5.93;;
79480;SDS011;68944;48.262;14.208;2023-05-20T02:25:30;10.55;;;5.75;;
79480;SDS011;68944;48.262;14.208;2023-05-20T02:27:56;11.82;;;5.93;;
79480;SDS011;68944;48.262;14.208;2023-05-20T02:30:21;10.13;;;5.97;;
79480;SDS011;68944;48.262;14.208;2023-05-20T02:32:47;11.18;;;6.13;;
79480;SDS011;68944;48.262;14.208;2023-05-20T02:35:12;12.38;;;6.45;;
79480;SDS011;68944;48.262;14.208;2023-05-20T02:37:38;13.10;;;7.10;;
79480;SDS011;68944;48.262;14.208;2023-05-20T02:40:03;10.25;;;6.28;;
79480;SDS011;68944;48.262;14.208;2023-05-20T02:42:31;12.98;;;5.88;;
79480;SDS011;68944;48.262;14.208;2023-05-20T02:44:56;9.85;;;6.20;;
79480;SDS011;68944;48.262;14.208;2023-05-20T02:47:23;10.73;;;6.57;;
79480;SDS011;68944;48.262;14.208;2023-05-20T02:49:49;12.73;;;7.03;;
79480;SDS011;68944;48.262;14.208;2023-05-20T02:52:15;11.40;;;7.20;;
79480;SDS011;68944;48.262;14.208;2023-05-20T02:54:41;11.55;;;7.00;;
79480;SDS011;68944;48.262;14.208;2023-05-20T02:57:06;10.65;;;6.40;;
79480;SDS011;68944;48.262;14.208;2023-05-20T02:59:32;12.43;;;6.45;;
79480;SDS011;68944;48.262;14.208;2023-05-20T03:01:57;10.50;;;6.78;;
79480;SDS011;68944;48.262;14.208;2023-05-20T03:04:23;13.18;;;7.00;;
79480;SDS011;68944;48.262;14.208;2023-05-20T03:06:50;14.55;;;7.03;;
79480;SDS011;68944;48.262;14.208;2023-05-20T03:09:16;14.25;;;7.35;;
79480;SDS011;68944;48.262;14.208;2023-05-20T03:11:43;14.02;;;7.70;;
79480;SDS011;68944;48.262;14.208;2023-05-20T03:14:10;11.93;;;7.05;;
79480;SDS011;68944;48.262;14.208;2023-05-20T03:16:35;12.35;;;7.43;;
79480;SDS011;68944;48.262;14.208;2023-05-20T03:19:02;14.07;;;7.20;;
79480;SDS011;68944;48.262;14.208;2023-05-20T03:21:27;15.57;;;7.90;;
79480;SDS011;68944;48.262;14.208;2023-05-20T03:23:53;11.85;;;7.57;;
79480;SDS011;68944;48.262;14.208;2023-05-20T03:26:18;14.40;;;7.68;;
79480;SDS011;68944;48.262;14.208;2023-05-20T03:28:45;13.50;;;8.15;;
79480;SDS011;68944;48.262;14.208;2023-05-20T03:31:10;14.73;;;8.18;;
79480;SDS011;68944;48.262;14.208;2023-05-20T03:33:36;16.67;;;8.38;;
79480;SDS011;68944;48.262;14.208;2023-05-20T03:36:02;18.98;;;8.82;;
79480;SDS011;68944;48.262;14.208;2023-05-20T03:38:28;16.40;;;9.85;;
79480;SDS011;68944;48.262;14.208;2023-05-20T03:40:53;13.05;;;8.73;;
79480;SDS011;68944;48.262;14.208;2023-05-20T03:43:18;16.40;;;8.93;;
79480;SDS011;68944;48.262;14.208;2023-05-20T03:45:44;13.65;;;8.98;;
79480;SDS011;68944;48.262;14.208;2023-05-20T03:48:11;14.23;;;9.73;;
79480;SDS011;68944;48.262;14.208;2023-05-20T03:50:38;14.35;;;9.77;;
79480;SDS011;68944;48.262;14.208;2023-05-20T03:53:03;21.10;;;11.60;;
79480;SDS011;68944;48.262;14.208;2023-05-20T03:55:36;21.58;;;11.82;;
79480;SDS011;68944;48.262;14.208;2023-05-20T03:58:02;16.63;;;10.88;;
79480;SDS011;68944;48.262;14.208;2023-05-20T04:00:29;17.90;;;11.75;;
79480;SDS011;68944;48.262;14.208;2023-05-20T04:02:57;16.98;;;11.18;;
79480;SDS011;68944;48.262;14.208;2023-05-20T04:05:23;18.30;;;12.20;;
79480;SDS011;68944;48.262;14.208;2023-05-20T04:07:49;22.50;;;11.73;;
79480;SDS011;68944;48.262;14.208;2023-05-20T04:10:17;19.38;;;11.50;;
79480;SDS011;68944;48.262;14.208;2023-05-20T04:12:44;17.08;;;11.82;;
79480;SDS011;68944;48.262;14.208;2023-05-20T04:15:10;22.02;;;13.60;;
79480;SDS011;68944;48.262;14.208;2023-05-20T04:17:45;19.73;;;12.05;;
79480;SDS011;68944;48.262;14.208;2023-05-20T04:20:13;18.65;;;12.32;;
79480;SDS011;68944;48.262;14.208;2023-05-20T04:22:38;20.63;;;12.30;;
79480;SDS011;68944;48.262;14.208;2023-05-20T04:25:04;21.10;;;12.93;;
79480;SDS011;68944;48.262;14.208;2023-05-20T04:27:30;20.98;;;12.68;;
79480;SDS011;68944;48.262;14.208;2023-05-20T04:29:58;19.63;;;12.73;;
79480;SDS011;68944;48.262;14.208;2023-05-20T04:32:24;20.25;;;12.40;;
79480;SDS011;68944;48.262;14.208;2023-05-20T04:34:51;20.45;;;13.10;;
79480;SDS011;68944;48.262;14.208;2023-05-20T04:37:19;21.20;;;13.02;;
79480;SDS011;68944;48.262;14.208;2023-05-20T04:39:45;21.83;;;13.18;;
79480;SDS011;68944;48.262;14.208;2023-05-20T04:42:12;19.63;;;13.00;;
79480;SDS011;68944;48.262;14.208;2023-05-20T04:44:38;20.10;;;12.70;;
79480;SDS011;68944;48.262;14.208;2023-05-20T04:47:04;20.42;;;14.00;;
79480;SDS011;68944;48.262;14.208;2023-05-20T04:49:35;22.20;;;13.93;;
79480;SDS011;68944;48.262;14.208;2023-05-20T04:52:00;19.98;;;12.70;;
79480;SDS011;68944;48.262;14.208;2023-05-20T04:54:26;20.70;;;13.15;;
79480;SDS011;68944;48.262;14.208;2023-05-20T04:56:52;22.48;;;13.32;;
79480;SDS011;68944;48.262;14.208;2023-05-20T04:59:17;21.35;;;13.38;;
79480;SDS011;68944;48.262;14.208;2023-05-20T05:01:43;19.27;;;13.23;;
79480;SDS011;68944;48.262;14.208;2023-05-20T05:04:09;20.00;;;12.80;;
79480;SDS011;68944;48.262;14.208;2023-05-20T05:06:34;21.10;;;13.45;;
79480;SDS011;68944;48.262;14.208;2023-05-20T05:09:01;21.30;;;13.80;;
79480;SDS011;68944;48.262;14.208;2023-05-20T05:11:26;20.65;;;13.40;;
79480;SDS011;68944;48.262;14.208;2023-05-20T05:13:53;23.88;;;13.77;;
79480;SDS011;68944;48.262;14.208;2023-05-20T05:16:22;23.92;;;14.15;;
79480;SDS011;68944;48.262;14.208;2023-05-20T05:18:47;19.75;;;12.85;;
79480;SDS011;68944;48.262;14.208;2023-05-20T05:21:12;21.23;;;13.27;;
79480;SDS011;68944;48.262;14.208;2023-05-20T05:23:40;20.20;;;12.98;;
79480;SDS011;68944;48.262;14.208;2023-05-20T05:26:07;20.67;;;13.05;;
79480;SDS011;68944;48.262;14.208;2023-05-20T05:28:32;22.95;;;13.82;;
79480;SDS011;68944;48.262;14.208;2023-05-20T05:30:58;19.55;;;13.45;;
79480;SDS011;68944;48.262;14.208;2023-05-20T05:33:24;21.88;;;12.85;;
79480;SDS011;68944;48.262;14.208;2023-05-20T05:35:50;18.65;;;12.18;;
79480;SDS011;68944;48.262;14.208;2023-05-20T05:38:16;22.35;;;13.85;;
79480;SDS011;68944;48.262;14.208;2023-05-20T05:40:42;22.42;;;12.50;;
79480;SDS011;68944;48.262;14.208;2023-05-20T05:43:07;21.98;;;13.25;;
79480;SDS011;68944;48.262;14.208;2023-05-20T05:45:33;22.45;;;13.52;;
79480;SDS011;68944;48.262;14.208;2023-05-20T05:47:59;20.45;;;12.63;;
79480;SDS011;68944;48.262;14.208;2023-05-20T05:50:25;24.60;;;14.95;;
79480;SDS011;68944;48.262;14.208;2023-05-20T05:52:51;24.38;;;14.18;;
79480;SDS011;68944;48.262;14.208;2023-05-20T05:55:16;22.95;;;14.10;;
79480;SDS011;68944;48.262;14.208;2023-05-20T05:57:43;20.90;;;14.00;;
79480;SDS011;68944;48.262;14.208;2023-05-20T06:00:11;21.90;;;13.95;;
79480;SDS011;68944;48.262;14.208;2023-05-20T06:02:46;20.92;;;13.20;;
79480;SDS011;68944;48.262;14.208;2023-05-20T06:05:20;24.15;;;14.15;;
79480;SDS011;68944;48.262;14.208;2023-05-20T06:07:45;21.77;;;14.07;;
79480;SDS011;68944;48.262;14.208;2023-05-20T06:10:11;21.58;;;14.15;;
79480;SDS011;68944;48.262;14.208;2023-05-20T06:12:36;21.02;;;14.18;;
79480;SDS011;68944;48.262;14.208;2023-05-20T06:15:02;20.98;;;13.15;;
79480;SDS011;68944;48.262;14.208;2023-05-20T06:17:28;21.55;;;13.23;;
79480;SDS011;68944;48.262;14.208;2023-05-20T06:19:53;26.98;;;13.43;;
79480;SDS011;68944;48.262;14.208;2023-05-20T06:22:19;21.83;;;13.60;;
79480;SDS011;68944;48.262;14.208;2023-05-20T06:24:44;18.98;;;12.98;;
79480;SDS011;68944;48.262;14.208;2023-05-20T06:27:11;22.20;;;13.23;;
79480;SDS011;68944;48.262;14.208;2023-05-20T06:29:37;23.23;;;13.52;;
79480;SDS011;68944;48.262;14.208;2023-05-20T06:32:02;29.95;;;14.68;;
79480;SDS011;68944;48.262;14.208;2023-05-20T06:34:28;19.42;;;12.75;;
79480;SDS011;68944;48.262;14.208;2023-05-20T06:36:55;20.48;;;12.98;;
79480;SDS011;68944;48.262;14.208;2023-05-20T06:39:20;21.60;;;12.43;;
79480;SDS011;68944;48.262;14.208;2023-05-20T06:41:46;21.30;;;13.27;;
79480;SDS011;68944;48.262;14.208;2023-05-20T06:44:21;26.15;;;13.98;;
79480;SDS011;68944;48.262;14.208;2023-05-20T06:47:10;24.85;;;13.63;;
79480;SDS011;68944;48.262;14.208;2023-05-20T06:49:35;21.02;;;13.27;;
79480;SDS011;68944;48.262;14.208;2023-05-20T06:52:01;18.65;;;12.48;;
79480;SDS011;68944;48.262;14.208;2023-05-20T06:54:28;19.42;;;12.38;;
79480;SDS011;68944;48.262;14.208;2023-05-20T06:56:53;18.00;;;11.43;;
79480;SDS011;68944;48.262;14.208;2023-05-20T06:59:20;21.60;;;11.45;;
79480;SDS011;68944;48.262;14.208;2023-05-20T07:01:45;17.70;;;11.90;;
79480;SDS011;68944;48.262;14.208;2023-05-20T07:04:11;18.88;;;11.43;;
79480;SDS011;68944;48.262;14.208;2023-05-20T07:06:37;17.02;;;11.50;;
79480;SDS011;68944;48.262;14.208;2023-05-20T07:09:02;21.35;;;11.00;;
79480;SDS011;68944;48.262;14.208;2023-05-20T07:11:30;20.30;;;11.48;;
79480;SDS011;68944;48.262;14.208;2023-05-20T07:13:56;17.45;;;10.68;;
79480;SDS011;68944;48.262;14.208;2023-05-20T07:16:23;16.77;;;10.82;;
79480;SDS011;68944;48.262;14.208;2023-05-20T07:18:52;20.70;;;11.13;;
79480;SDS011;68944;48.262;14.208;2023-05-20T07:21:17;16.08;;;10.32;;
79480;SDS011;68944;48.262;14.208;2023-05-20T07:24:03;18.45;;;10.80;;
79480;SDS011;68944;48.262;14.208;2023-05-20T07:26:29;21.88;;;11.10;;
79480;SDS011;68944;48.262;14.208;2023-05-20T07:28:57;25.20;;;10.43;;
79480;SDS011;68944;48.262;14.208;2023-05-20T07:31:23;19.27;;;10.82;;
79480;SDS011;68944;48.262;14.208;2023-05-20T07:33:49;19.35;;;10.45;;
79480;SDS011;68944;48.262;14.208;2023-05-20T07:36:14;17.27;;;10.80;;
79480;SDS011;68944;48.262;14.208;2023-05-20T07:38:43;14.38;;;9.73;;
79480;SDS011;68944;48.262;14.208;2023-05-20T07:41:09;15.18;;;9.48;;
79480;SDS011;68944;48.262;14.208;2023-05-20T07:43:35;16.30;;;8.43;;
79480;SDS011;68944;48.262;14.208;2023-05-20T07:46:02;14.40;;;8.60;;
79480;SDS011;68944;48.262;14.208;2023-05-20T07:48:27;15.73;;;8.48;;
79480;SDS011;68944;48.262;14.208;2023-05-20T07:50:53;16.00;;;8.63;;
79480;SDS011;68944;48.262;14.208;2023-05-20T07:53:22;14.35;;;7.72;;
79480;SDS011;68944;48.262;14.208;2023-05-20T07:55:47;12.77;;;7.70;;
79480;SDS011;68944;48.262;14.208;2023-05-20T07:58:13;14.68;;;7.57;;
79480;SDS011;68944;48.262;14.208;2023-05-20T08:00:38;13.38;;;7.82;;
79480;SDS011;68944;48.262;14.208;2023-05-20T08:03:06;13.60;;;7.35;;
79480;SDS011;68944;48.262;14.208;2023-05-20T08:05:45;11.20;;;6.60;;
79480;SDS011;68944;48.262;14.208;2023-05-20T08:08:11;11.63;;;7.22;;
79480;SDS011;68944;48.262;14.208;2023-05-20T08:10:49;13.30;;;6.45;;
79480;SDS011;68944;48.262;14.208;2023-05-20T08:13:17;13.55;;;6.82;;
79480;SDS011;68944;48.262;14.208;2023-05-20T08:15:43;11.57;;;6.53;;
79480;SDS011;68944;48.262;14.208;2023-05-20T08:18:09;12.85;;;7.07;;
79480;SDS011;68944;48.262;14.208;2023-05-20T08:20:34;12.18;;;6.70;;
79480;SDS011;68944;48.262;14.208;2023-05-20T08:23:00;13.70;;;6.55;;
79480;SDS011;68944;48.262;14.208;2023-05-20T08:25:26;10.85;;;6.40;;
79480;SDS011;68944;48.262;14.208;2023-05-20T08:27:52;10.25;;;6.35;;
79480;SDS011;68944;48.262;14.208;2023-05-20T08:30:18;12.65;;;7.60;;
79480;SDS011;68944;48.262;14.208;2023-05-20T08:32:43;9.60;;;5.78;;
79480;SDS011;68944;48.262;14.208;2023-05-20T08:35:09;10.90;;;5.93;;
79480;SDS011;68944;48.262;14.208;2023-05-20T08:37:35;12.27;;;6.13;;
79480;SDS011;68944;48.262;14.208;2023-05-20T08:40:01;10.60;;;6.35;;
79480;SDS011;68944;48.262;14.208;2023-05-20T08:42:27;11.63;;;6.80;;
79480;SDS011;68944;48.262;14.208;2023-05-20T08:44:54;12.00;;;6.75;;
79480;SDS011;68944;48.262;14.208;2023-05-20T08:47:22;14.25;;;6.22;;
79480;SDS011;68944;48.262;14.208;2023-05-20T08:49:48;10.27;;;5.60;;
79480;SDS011;68944;48.262;14.208;2023-05-20T08:52:15;12.07;;;6.03;;
79480;SDS011;68944;48.262;14.208;2023-05-20T08:54:43;13.57;;;6.35;;
79480;SDS011;68944;48.262;14.208;2023-05-20T08:57:11;13.38;;;5.22;;
79480;SDS011;68944;48.262;14.208;2023-05-20T08:59:41;9.93;;;4.90;;
79480;SDS011;68944;48.262;14.208;2023-05-20T09:02:08;11.75;;;4.60;;
79480;SDS011;68944;48.262;14.208;2023-05-20T09:04:37;7.78;;;4.57;;
79480;SDS011;68944;48.262;14.208;2023-05-20T09:07:03;7.80;;;4.22;;
79480;SDS011;68944;48.262;14.208;2023-05-20T09:09:29;9.15;;;4.40;;
79480;SDS011;68944;48.262;14.208;2023-05-20T09:11:58;9.43;;;4.63;;
79480;SDS011;68944;48.262;14.208;2023-05-20T09:14:24;8.15;;;4.32;;
79480;SDS011;68944;48.262;14.208;2023-05-20T09:16:51;10.73;;;4.57;;
79480;SDS011;68944;48.262;14.208;2023-05-20T09:19:18;8.43;;;4.10;;
79480;SDS011;68944;48.262;14.208;2023-05-20T09:21:45;8.15;;;4.38;;
79480;SDS011;68944;48.262;14.208;2023-05-20T09:24:11;11.73;;;4.30;;
79480;SDS011;68944;48.262;14.208;2023-05-20T09:26:36;10.30;;;4.70;;
79480;SDS011;68944;48.262;14.208;2023-05-20T09:29:02;9.07;;;4.40;;
79480;SDS011;68944;48.262;14.208;2023-05-20T09:31:29;8.38;;;4.18;;
79480;SDS011;68944;48.262;14.208;2023-05-20T09:33:57;9.85;;;4.55;;
79480;SDS011;68944;48.262;14.208;2023-05-20T09:36:22;12.25;;;4.93;;
79480;SDS011;68944;48.262;14.208;2023-05-20T09:38:52;10.05;;;4.25;;
79480;SDS011;68944;48.262;14.208;2023-05-20T09:41:23;10.95;;;5.03;;
79480;SDS011;68944;48.262;14.208;2023-05-20T09:43:56;11.38;;;4.55;;
79480;SDS011;68944;48.262;14.208;2023-05-20T09:46:22;8.68;;;4.32;;
79480;SDS011;68944;48.262;14.208;2023-05-20T09:48:48;12.88;;;4.65;;
79480;SDS011;68944;48.262;14.208;2023-05-20T09:51:13;15.07;;;4.85;;
79480;SDS011;68944;48.262;14.208;2023-05-20T09:53:39;9.40;;;4.25;;
79480;SDS011;68944;48.262;14.208;2023-05-20T09:56:05;9.02;;;4.15;;
79480;SDS011;68944;48.262;14.208;2023-05-20T09:58:31;11.38;;;4.60;;
79480;SDS011;68944;48.262;14.208;2023-05-20T10:00:59;10.35;;;4.53;;
79480;SDS011;68944;48.262;14.208;2023-05-20T10:03:25;12.65;;;5.10;;
79480;SDS011;68944;48.262;14.208;2023-05-20T10:08:52;11.50;;;4.47;;
79480;SDS011;68944;48.262;14.208;2023-05-20T10:11:50;19.90;;;4.65;;
79480;SDS011;68944;48.262;14.208;2023-05-20T10:14:41;12.02;;;5.10;;
79480;SDS011;68944;48.262;14.208;2023-05-20T10:17:25;14.18;;;4.68;;
79480;SDS011;68944;48.262;14.208;2023-05-20T10:20:01;11.40;;;4.63;;
79480;SDS011;68944;48.262;14.208;2023-05-20T10:22:28;10.85;;;5.18;;
79480;SDS011;68944;48.262;14.208;2023-05-20T10:24:59;11.63;;;4.82;;
79480;SDS011;68944;48.262;14.208;2023-05-20T10:27:40;10.65;;;5.03;;
79480;SDS011;68944;48.262;14.208;2023-05-20T10:30:19;10.23;;;4.72;;
79480;SDS011;68944;48.262;14.208;2023-05-20T10:32:57;8.25;;;4.75;;
79480;SDS011;68944;48.262;14.208;2023-05-20T10:35:28;9.70;;;4.72;;
79480;SDS011;68944;48.262;14.208;2023-05-20T10:38:05;9.05;;;4.57;;
79480;SDS011;68944;48.262;14.208;2023-05-20T10:40:35;11.45;;;5.03;;
79480;SDS011;68944;48.262;14.208;2023-05-20T10:43:34;10.18;;;4.80;;
79480;SDS011;68944;48.262;14.208;2023-05-20T10:45:53;16.17;;;7.00;;
79480;SDS011;68944;48.262;14.208;2023-05-20T10:48:28;10.15;;;5.03;;
79480;SDS011;68944;48.262;14.208;2023-05-20T10:50:59;12.05;;;4.72;;
79480;SDS011;68944;48.262;14.208;2023-05-20T10:53:37;11.05;;;5.43;;
79480;SDS011;68944;48.262;14.208;2023-05-20T10:56:04;11.75;;;5.28;;
79480;SDS011;68944;48.262;14.208;2023-05-20T10:58:37;11.93;;;5.60;;
79480;SDS011;68944;48.262;14.208;2023-05-20T11:01:03;9.52;;;4.60;;
79480;SDS011;68944;48.262;14.208;2023-05-20T11:03:29;9.30;;;5.07;;
79480;SDS011;68944;48.262;14.208;2023-05-20T11:05:55;8.50;;;5.03;;
79480;SDS011;68944;48.262;14.208;2023-05-20T11:08:21;12.57;;;5.60;;
79480;SDS011;68944;48.262;14.208;2023-05-20T11:10:46;9.05;;;4.78;;
79480;SDS011;68944;48.262;14.208;2023-05-20T11:13:12;9.25;;;4.70;;
79480;SDS011;68944;48.262;14.208;2023-05-20T11:15:39;8.75;;;4.72;;
79480;SDS011;68944;48.262;14.208;2023-05-20T11:18:06;11.57;;;5.45;;
79480;SDS011;68944;48.262;14.208;2023-05-20T11:20:31;14.07;;;5.18;;
79480;SDS011;68944;48.262;14.208;2023-05-20T11:22:59;9.38;;;5.15;;
79480;SDS011;68944;48.262;14.208;2023-05-20T11:25:25;12.98;;;5.45;;
79480;SDS011;68944;48.262;14.208;2023-05-20T11:27:52;8.50;;;5.22;;
79480;SDS011;68944;48.262;14.208;2023-05-20T11:30:18;10.80;;;5.10;;
79480;SDS011;68944;48.262;14.208;2023-05-20T11:32:57;11.55;;;5.20;;
79480;SDS011;68944;48.262;14.208;2023-05-20T11:35:24;9.10;;;4.95;;
79480;SDS011;68944;48.262;14.208;2023-05-20T11:38:08;9.85;;;5.05;;
79480;SDS011;68944;48.262;14.208;2023-05-20T11:40:34;10.60;;;5.20;;
79480;SDS011;68944;48.262;14.208;2023-05-20T11:43:00;13.10;;;4.93;;
79480;SDS011;68944;48.262;14.208;2023-05-20T11:45:37;8.48;;;4.65;;
79480;SDS011;68944;48.262;14.208;2023-05-20T11:48:04;10.02;;;5.50;;
79480;SDS011;68944;48.262;14.208;2023-05-20T11:50:34;10.57;;;5.80;;
79480;SDS011;68944;48.262;14.208;2023-05-20T11:53:04;9.10;;;5.43;;
79480;SDS011;68944;48.262;14.208;2023-05-20T11:55:43;10.40;;;5.22;;
79480;SDS011;68944;48.262;14.208;2023-05-20T11:58:20;12.13;;;5.07;;
79480;SDS011;68944;48.262;14.208;2023-05-20T12:00:47;13.85;;;5.88;;
79480;SDS011;68944;48.262;14.208;2023-05-20T12:03:13;11.95;;;5.47;;
79480;SDS011;68944;48.262;14.208;2023-05-20T12:05:39;11.95;;;5.38;;
79480;SDS011;68944;48.262;14.208;2023-05-20T12:08:04;11.98;;;5.20;;
79480;SDS011;68944;48.262;14.208;2023-05-20T12:10:31;10.00;;;5.15;;
79480;SDS011;68944;48.262;14.208;2023-05-20T12:12:57;10.07;;;5.05;;
79480;SDS011;68944;48.262;14.208;2023-05-20T12:15:22;9.57;;;5.57;;
79480;SDS011;68944;48.262;14.208;2023-05-20T12:17:49;11.70;;;5.28;;
79480;SDS011;68944;48.262;14.208;2023-05-20T12:20:17;11.55;;;5.00;;
79480;SDS011;68944;48.262;14.208;2023-05-20T12:22:44;9.43;;;4.80;;
79480;SDS011;68944;48.262;14.208;2023-05-20T12:25:17;9.38;;;4.88;;
79480;SDS011;68944;48.262;14.208;2023-05-20T12:27:44;11.32;;;5.10;;
79480;SDS011;68944;48.262;14.208;2023-05-20T12:30:23;9.30;;;4.70;;
79480;SDS011;68944;48.262;14.208;2023-05-20T12:32:49;10.90;;;5.20;;
79480;SDS011;68944;48.262;14.208;2023-05-20T12:35:16;10.38;;;5.55;;
79480;SDS011;68944;48.262;14.208;2023-05-20T12:37:44;14.18;;;5.53;;
79480;SDS011;68944;48.262;14.208;2023-05-20T12:40:10;11.20;;;5.32;;
79480;SDS011;68944;48.262;14.208;2023-05-20T12:42:40;9.85;;;4.90;;
79480;SDS011;68944;48.262;14.208;2023-05-20T12:45:06;8.88;;;4.72;;
79480;SDS011;68944;48.262;14.208;2023-05-20T12:47:36;13.10;;;5.13;;
79480;SDS011;68944;48.262;14.208;2023-05-20T12:50:02;12.65;;;4.93;;
79480;SDS011;68944;48.262;14.208;2023-05-20T12:52:29;16.42;;;5.20;;
79480;SDS011;68944;48.262;14.208;2023-05-20T12:54:54;11.57;;;5.28;;
79480;SDS011;68944;48.262;14.208;2023-05-20T12:57:21;11.10;;;5.45;;
79480;SDS011;68944;48.262;14.208;2023-05-20T12:59:47;11.15;;;5.07;;
79480;SDS011;68944;48.262;14.208;2023-05-20T13:02:13;8.38;;;4.90;;
79480;SDS011;68944;48.262;14.208;2023-05-20T13:04:39;8.48;;;5.03;;
79480;SDS011;68944;48.262;14.208;2023-05-20T13:07:05;9.80;;;5.22;;
79480;SDS011;68944;48.262;14.208;2023-05-20T13:09:30;11.68;;;5.93;;
79480;SDS011;68944;48.262;14.208;2023-05-20T13:11:57;10.77;;;5.63;;
79480;SDS011;68944;48.262;14.208;2023-05-20T13:14:22;10.75;;;5.53;;
79480;SDS011;68944;48.262;14.208;2023-05-20T13:16:48;11.25;;;5.10;;
79480;SDS011;68944;48.262;14.208;2023-05-20T13:19:18;12.52;;;5.43;;
79480;SDS011;68944;48.262;14.208;2023-05-20T13:21:50;10.80;;;5.75;;
79480;SDS011;68944;48.262;14.208;2023-05-20T13:24:18;11.40;;;5.35;;
79480;SDS011;68944;48.262;14.208;2023-05-20T13:26:43;10.27;;;5.47;;
79480;SDS011;68944;48.262;14.208;2023-05-20T13:29:09;11.13;;;5.30;;
79480;SDS011;68944;48.262;14.208;2023-05-20T13:31:36;10.63;;;5.05;;
79480;SDS011;68944;48.262;14.208;2023-05-20T13:34:02;10.73;;;5.53;;
79480;SDS011;68944;48.262;14.208;2023-05-20T13:36:28;12.38;;;5.80;;
79480;SDS011;68944;48.262;14.208;2023-05-20T13:39:00;11.95;;;5.90;;
79480;SDS011;68944;48.262;14.208;2023-05-20T13:41:25;13.23;;;5.30;;
79480;SDS011;68944;48.262;14.208;2023-05-20T13:43:51;10.90;;;5.78;;
79480;SDS011;68944;48.262;14.208;2023-05-20T13:46:17;12.73;;;5.93;;
79480;SDS011;68944;48.262;14.208;2023-05-20T13:48:42;11.55;;;5.57;;
79480;SDS011;68944;48.262;14.208;2023-05-20T13:51:08;14.05;;;6.03;;
79480;SDS011;68944;48.262;14.208;2023-05-20T13:53:34;14.10;;;5.40;;
79480;SDS011;68944;48.262;14.208;2023-05-20T13:55:59;11.95;;;5.78;;
79480;SDS011;68944;48.262;14.208;2023-05-20T13:58:25;11.20;;;6.10;;
79480;SDS011;68944;48.262;14.208;2023-05-20T14:00:50;10.52;;;5.80;;
79480;SDS011;68944;48.262;14.208;2023-05-20T14:03:16;10.25;;;5.65;;
79480;SDS011;68944;48.262;14.208;2023-05-20T14:05:41;12.65;;;5.80;;
79480;SDS011;68944;48.262;14.208;2023-05-20T14:08:07;10.43;;;5.55;;
79480;SDS011;68944;48.262;14.208;2023-05-20T14:10:32;12.02;;;6.28;;
79480;SDS011;68944;48.262;14.208;2023-05-20T14:12:58;10.13;;;5.75;;
79480;SDS011;68944;48.262;14.208;2023-05-20T14:15:26;10.07;;;5.80;;
79480;SDS011;68944;48.262;14.208;2023-05-20T14:20:20;10.50;;;6.25;;
79480;SDS011;68944;48.262;14.208;2023-05-20T14:22:45;13.80;;;6.03;;
79480;SDS011;68944;48.262;14.208;2023-05-20T14:25:11;14.75;;;6.03;;
79480;SDS011;68944;48.262;14.208;2023-05-20T14:27:36;13.23;;;6.30;;
79480;SDS011;68944;48.262;14.208;2023-05-20T14:30:02;15.88;;;6.47;;